createdAt,value
2024-03-04T00:00:56.417Z,67.53
2024-03-04T00:03:24.775Z,68.83
2024-03-04T00:05:54.041Z,67.80
2024-03-04T00:08:22.007Z,71.10
2024-03-04T00:10:50.036Z,70.93
2024-03-04T00:13:18.519Z,70.50
2024-03-04T00:15:46.499Z,71.87
2024-03-04T00:18:14.320Z,72.23
2024-03-04T00:20:42.381Z,72.67
2024-03-04T00:23:11.674Z,73.60
2024-03-04T00:25:39.755Z,76.80
2024-03-04T00:28:07.734Z,78.50
2024-03-04T00:30:35.685Z,77.30
2024-03-04T00:33:03.724Z,78.57
2024-03-04T00:35:31.952Z,79.53
2024-03-04T00:37:59.923Z,79.13
2024-03-04T00:40:29.574Z,80.47
2024-03-04T00:42:58.268Z,82.87
2024-03-04T00:45:26.514Z,80.97
2024-03-04T00:47:54.551Z,81.00
2024-03-04T00:50:22.425Z,81.70
2024-03-04T00:52:50.349Z,82.27
2024-03-04T00:55:18.939Z,82.87
2024-03-04T00:57:48.286Z,81.77
2024-03-04T01:00:16.541Z,84.30
2024-03-04T01:02:44.443Z,84.17
2024-03-04T01:05:13.251Z,83.33
2024-03-04T01:07:41.207Z,85.40
2024-03-04T01:10:10.320Z,84.83
2024-03-04T01:12:39.109Z,87.90
2024-03-04T01:15:10.368Z,87.83
2024-03-04T01:17:38.337Z,88.67
2024-03-04T01:20:11.249Z,88.37
2024-03-04T01:22:39.499Z,90.80
2024-03-04T01:25:07.756Z,92.27
2024-03-04T01:27:37.071Z,91.63
2024-03-04T01:30:05.806Z,92.60
2024-03-04T01:32:36.708Z,93.97
2024-03-04T01:35:08.964Z,95.27
2024-03-04T01:37:37.133Z,97.97
2024-03-04T01:40:05.471Z,97.03
2024-03-04T01:42:33.545Z,98.77
2024-03-04T01:45:01.513Z,97.50
2024-03-04T01:47:29.739Z,100.07
2024-03-04T01:49:59.093Z,100.57
2024-03-04T01:52:27.028Z,102.17
2024-03-04T01:54:57.241Z,102.07
2024-03-04T01:57:25.354Z,103.87
2024-03-04T01:59:53.926Z,104.23
2024-03-04T02:02:22.147Z,105.00
2024-03-04T02:04:50.863Z,105.77
2024-03-04T02:07:20.556Z,104.90
2024-03-04T02:09:48.730Z,106.97
2024-03-04T02:12:16.738Z,103.87
2024-03-04T02:14:44.774Z,108.13
2024-03-04T02:17:12.612Z,108.53
2024-03-04T02:19:40.725Z,106.83
2024-03-04T02:22:10.910Z,107.17
2024-03-04T02:24:41.321Z,108.57
2024-03-04T02:27:09.311Z,108.63
2024-03-04T02:29:37.150Z,108.90
2024-03-04T02:32:05.353Z,111.47
2024-03-04T02:34:33.255Z,109.47
2024-03-04T02:37:01.392Z,108.37
2024-03-04T02:39:29.441Z,107.63
2024-03-04T02:41:58.691Z,107.77
2024-03-04T02:44:26.571Z,109.20
2024-03-04T02:46:54.572Z,114.13
2024-03-04T02:49:22.533Z,111.73
2024-03-04T02:51:51.564Z,114.30
2024-03-04T02:54:20.562Z,113.33
2024-03-04T02:56:48.559Z,111.43
2024-03-04T02:59:17.790Z,111.53
2024-03-04T03:01:49.372Z,110.77
2024-03-04T03:04:18.009Z,113.33
2024-03-04T03:06:45.924Z,113.73
2024-03-04T03:09:14.003Z,113.13
2024-03-04T03:11:41.988Z,115.97
2024-03-04T03:14:09.990Z,117.57
2024-03-04T03:16:39.467Z,116.43
2024-03-04T03:19:07.380Z,118.03
2024-03-04T03:21:35.949Z,119.93
2024-03-04T03:24:03.944Z,120.90
2024-03-04T03:26:31.823Z,122.07
2024-03-04T03:28:59.769Z,120.43
2024-03-04T03:31:28.007Z,120.53
2024-03-04T03:33:57.402Z,122.27
2024-03-04T03:36:25.538Z,123.57
2024-03-04T03:38:54.090Z,123.03
2024-03-04T03:41:22.100Z,126.73
2024-03-04T03:43:49.999Z,122.93
2024-03-04T03:46:18.004Z,127.00
2024-03-04T03:48:45.943Z,126.17
2024-03-04T03:51:15.282Z,125.53
2024-03-04T03:53:43.234Z,126.33
2024-03-04T03:56:12.805Z,126.70
2024-03-04T03:58:40.818Z,126.70
2024-03-04T04:01:09.025Z,126.27
2024-03-04T04:03:36.987Z,127.30
2024-03-04T04:06:05.275Z,126.87
2024-03-04T04:08:34.550Z,129.30
2024-03-04T04:11:02.658Z,126.77
2024-03-04T04:13:31.686Z,130.80
2024-03-04T04:15:59.738Z,130.87
2024-03-04T04:18:27.653Z,130.20
2024-03-04T04:20:55.623Z,130.13
2024-03-04T04:23:23.735Z,130.10
2024-03-04T04:25:53.065Z,128.43
2024-03-04T04:28:21.148Z,133.23
2024-03-04T04:30:49.100Z,134.23
2024-03-04T04:33:17.703Z,133.17
2024-03-04T04:35:45.631Z,131.23
2024-03-04T04:38:13.560Z,132.67
2024-03-04T04:40:41.590Z,130.70
2024-03-04T04:43:11.006Z,131.03
2024-03-04T04:45:39.024Z,129.67
2024-03-04T04:48:07.459Z,131.77
2024-03-04T04:50:35.407Z,131.47
2024-03-04T04:53:03.287Z,132.87
2024-03-04T04:55:31.393Z,128.40
2024-03-04T04:57:59.486Z,132.90
2024-03-04T05:00:28.929Z,131.97
2024-03-04T05:02:57.067Z,132.43
2024-03-04T05:05:25.216Z,133.70
2024-03-04T05:07:53.085Z,130.27
2024-03-04T05:10:21.025Z,135.50
2024-03-04T05:12:50.244Z,134.53
2024-03-04T05:15:18.506Z,134.13
2024-03-04T05:17:47.863Z,131.70
2024-03-04T05:20:17.183Z,136.77
2024-03-04T05:22:45.375Z,138.27
2024-03-04T05:25:13.376Z,138.77
2024-03-04T05:27:41.423Z,131.97
2024-03-04T05:30:11.620Z,133.83
2024-03-04T05:32:39.867Z,132.50
2024-03-04T05:35:09.763Z,129.40
2024-03-04T05:37:38.140Z,126.70
2024-03-04T05:40:11.240Z,123.70
2024-03-04T05:42:41.147Z,122.47
2024-03-04T05:45:10.271Z,124.87
2024-03-04T05:47:38.383Z,122.47
2024-03-04T05:50:07.276Z,126.10
2024-03-04T05:52:37.244Z,121.87
2024-03-04T05:55:05.892Z,123.43
2024-03-04T05:57:35.225Z,125.37
2024-03-04T06:00:04.826Z,123.77
2024-03-04T06:02:33.476Z,126.27
2024-03-04T06:05:01.521Z,124.20
2024-03-04T06:07:30.081Z,127.03
2024-03-04T06:09:59.512Z,126.70
2024-03-04T06:12:27.537Z,128.03
2024-03-04T06:14:55.544Z,127.13
2024-03-04T06:17:23.711Z,129.53
2024-03-04T06:19:51.803Z,127.43
2024-03-04T06:22:19.865Z,130.07
2024-03-04T06:24:47.831Z,125.13
2024-03-04T06:27:17.445Z,125.17
2024-03-04T06:29:45.421Z,129.67
2024-03-04T06:32:13.454Z,125.97
2024-03-04T06:34:41.880Z,123.60
2024-03-04T06:37:10.464Z,124.87
2024-03-04T06:39:38.442Z,122.17
2024-03-04T06:42:06.505Z,122.53
2024-03-04T06:44:37.103Z,120.07
2024-03-04T06:47:05.570Z,117.13
2024-03-04T06:49:33.555Z,118.73
2024-03-04T06:52:01.655Z,115.87
2024-03-04T06:54:29.615Z,117.43
2024-03-04T06:56:57.496Z,118.30
2024-03-04T06:59:25.407Z,117.10
2024-03-04T07:01:55.140Z,117.67
2024-03-04T07:04:23.291Z,115.50
2024-03-04T07:06:51.228Z,115.70
2024-03-04T07:09:19.116Z,110.97
2024-03-04T07:11:47.204Z,108.10
2024-03-04T07:14:15.125Z,108.23
2024-03-04T07:16:43.218Z,104.87
2024-03-04T07:19:12.599Z,101.03
2024-03-04T07:21:40.635Z,102.80
2024-03-04T07:24:08.852Z,101.57
2024-03-04T07:26:36.857Z,100.27
2024-03-04T07:29:08.418Z,97.23
2024-03-04T07:31:41.647Z,93.93
2024-03-04T07:34:10.168Z,95.97
2024-03-04T07:36:39.505Z,96.57
2024-03-04T07:39:09.137Z,95.87
2024-03-04T07:41:37.200Z,92.07
2024-03-04T07:44:05.195Z,96.47
2024-03-04T07:46:33.234Z,94.20
2024-03-04T07:49:01.122Z,94.47
2024-03-04T07:51:29.202Z,92.03
2024-03-04T07:53:58.449Z,96.97
2024-03-04T07:56:26.388Z,95.73
2024-03-04T07:58:55.581Z,94.17
2024-03-04T08:01:23.674Z,91.77
2024-03-04T08:03:51.672Z,95.90
2024-03-04T08:06:20.625Z,92.50
2024-03-04T08:08:49.736Z,95.63
2024-03-04T08:11:19.114Z,96.63
2024-03-04T08:13:47.603Z,95.77
2024-03-04T08:16:15.582Z,95.50
2024-03-04T08:18:43.675Z,93.37
2024-03-04T08:21:15.568Z,93.60
2024-03-04T08:23:43.613Z,95.63
2024-03-04T08:26:11.656Z,91.87
2024-03-04T08:28:41.767Z,92.63
2024-03-04T08:31:09.870Z,92.57
2024-03-04T08:33:37.824Z,90.17
2024-03-04T08:36:06.901Z,87.20
2024-03-04T08:38:35.122Z,84.37
2024-03-04T08:41:04.329Z,81.77
2024-03-04T08:43:33.375Z,84.07
2024-03-04T08:46:02.866Z,81.20
2024-03-04T08:48:30.899Z,78.40
2024-03-04T08:50:57.798Z,76.67
2024-03-04T08:53:25.655Z,75.47
2024-03-04T08:55:55.225Z,76.77
2024-03-04T08:58:24.127Z,70.63
2024-03-04T09:00:52.281Z,75.97
2024-03-04T09:03:21.777Z,75.03
2024-03-04T09:05:49.685Z,75.57
2024-03-04T09:08:18.271Z,73.07
2024-03-04T09:10:46.420Z,74.47
2024-03-04T09:13:14.640Z,74.87
2024-03-04T09:15:42.617Z,74.60
2024-03-04T09:18:10.691Z,77.33
2024-03-04T09:20:40.014Z,76.90
2024-03-04T09:23:08.540Z,73.97
2024-03-04T09:25:38.547Z,72.27
2024-03-04T09:28:08.632Z,71.37
2024-03-04T09:30:36.667Z,68.37
2024-03-04T09:33:04.816Z,64.63
2024-03-04T09:35:32.780Z,64.70
2024-03-04T09:38:02.098Z,65.87
2024-03-04T09:40:30.042Z,65.07
2024-03-04T09:42:59.101Z,62.17
2024-03-04T09:45:28.090Z,61.23
2024-03-04T09:47:57.078Z,60.17
2024-03-04T09:50:25.282Z,60.93
2024-03-04T09:52:53.808Z,58.63
2024-03-04T09:55:23.057Z,57.33
2024-03-04T09:57:51.187Z,59.40
2024-03-04T10:00:19.524Z,56.20
2024-03-04T10:02:47.556Z,56.33
2024-03-04T10:05:15.997Z,55.57
2024-03-04T10:07:44.036Z,55.20
2024-03-04T10:10:14.144Z,55.00
2024-03-04T10:12:44.627Z,56.10
2024-03-04T10:15:13.532Z,53.57
2024-03-04T10:17:41.764Z,53.77
2024-03-04T10:20:10.457Z,54.00
2024-03-04T10:22:39.856Z,55.43
2024-03-04T10:25:08.980Z,52.60
2024-03-04T10:27:37.548Z,53.40
2024-03-04T10:30:13.474Z,49.45
2024-03-04T10:32:41.843Z,49.93
2024-03-04T10:35:10.199Z,48.92
2024-03-04T10:37:38.464Z,48.38
2024-03-04T10:40:07.623Z,48.23
2024-03-04T10:42:36.008Z,46.78
2024-03-04T10:45:05.554Z,47.03
2024-03-04T10:47:35.114Z,45.00
2024-03-04T10:50:05.477Z,41.53
2024-03-04T10:52:33.693Z,41.33
2024-03-04T10:55:01.851Z,41.63
2024-03-04T10:57:30.315Z,40.90
2024-03-04T10:59:59.718Z,39.03
2024-03-04T11:02:37.844Z,38.83
2024-03-04T11:05:08.540Z,38.38
2024-03-04T11:07:39.209Z,38.35
2024-03-04T11:10:10.779Z,38.75
2024-03-04T11:12:39.999Z,37.03
2024-03-04T11:15:11.569Z,38.75
2024-03-04T11:17:43.330Z,35.05
2024-03-04T11:20:16.130Z,32.22
2024-03-04T11:22:45.242Z,34.42
2024-03-04T11:25:13.791Z,34.58
2024-03-04T11:27:42.064Z,32.83
2024-03-04T11:30:11.310Z,32.25
2024-03-04T11:32:39.204Z,32.58
2024-03-04T11:35:11.017Z,33.47
2024-03-04T11:37:53.525Z,30.92
2024-03-04T11:40:24.801Z,30.60
2024-03-04T11:42:54.130Z,31.00
2024-03-04T11:45:24.281Z,30.30
2024-03-04T11:47:52.519Z,31.15
2024-03-04T11:50:36.757Z,31.20
2024-03-04T11:53:21.102Z,30.58
2024-03-04T11:55:50.396Z,30.75
2024-03-04T11:58:19.055Z,32.97
2024-03-04T12:00:47.278Z,32.78
2024-03-04T12:03:16.189Z,29.75
2024-03-04T12:05:44.578Z,32.10
2024-03-04T12:08:26.890Z,31.10
2024-03-04T12:11:02.219Z,33.53
2024-03-04T12:13:30.936Z,33.40
2024-03-04T12:15:59.196Z,32.88
2024-03-04T12:18:28.364Z,32.35
2024-03-04T12:20:56.906Z,33.47
2024-03-04T12:23:29.132Z,35.70
2024-03-04T12:26:10.236Z,35.67
2024-03-04T12:28:38.711Z,35.90
2024-03-04T12:31:10.391Z,34.47
2024-03-04T12:33:38.368Z,33.28
2024-03-04T12:36:08.471Z,31.95
2024-03-04T12:38:38.142Z,32.83
2024-03-04T12:41:08.120Z,34.30
2024-03-04T12:43:36.376Z,34.47
2024-03-04T12:46:04.688Z,34.58
2024-03-04T12:48:32.591Z,35.78
2024-03-04T12:51:01.209Z,36.20
2024-03-04T12:53:29.569Z,37.13
2024-03-04T12:55:59.656Z,39.42
2024-03-04T12:58:27.770Z,39.83
2024-03-04T13:00:55.763Z,39.45
2024-03-04T13:03:23.957Z,40.05
2024-03-04T13:05:53.746Z,39.05
2024-03-04T13:08:22.129Z,41.30
2024-03-04T13:10:50.159Z,41.05
2024-03-04T13:13:19.582Z,40.53
2024-03-04T13:15:51.767Z,39.70
2024-03-04T13:18:19.831Z,42.10
2024-03-04T13:20:47.757Z,40.17
2024-03-04T13:23:15.740Z,41.40
2024-03-04T13:25:43.697Z,41.92
2024-03-04T13:28:11.662Z,41.95
2024-03-04T13:30:41.007Z,42.20
2024-03-04T13:33:09.614Z,42.08
2024-03-04T13:35:37.650Z,43.08
2024-03-04T13:38:05.803Z,43.30
2024-03-04T13:40:33.818Z,43.15
2024-03-04T13:43:09.132Z,41.95
2024-03-04T13:45:45.270Z,42.33
2024-03-04T13:48:14.063Z,42.75
2024-03-04T13:50:42.378Z,42.15
2024-03-04T13:53:10.430Z,41.33
2024-03-04T13:55:39.923Z,40.90
2024-03-04T13:58:08.604Z,40.25
2024-03-04T14:00:36.840Z,39.05
2024-03-04T14:03:06.618Z,37.50
2024-03-04T14:05:35.351Z,34.53
2024-03-04T14:08:03.635Z,36.33
2024-03-04T14:10:31.913Z,34.03
2024-03-04T14:12:59.854Z,31.52
2024-03-04T14:15:27.915Z,29.52
2024-03-04T14:17:55.935Z,31.70
2024-03-04T14:20:26.199Z,32.90
2024-03-04T14:22:54.273Z,33.47
2024-03-04T14:25:22.226Z,31.10
2024-03-04T14:27:50.213Z,32.22
2024-03-04T14:30:19.745Z,33.38
2024-03-04T14:32:47.825Z,33.35
2024-03-04T14:35:15.930Z,32.85
2024-03-04T14:37:45.268Z,31.00
2024-03-04T14:40:14.104Z,30.35
2024-03-04T14:42:44.619Z,29.05
2024-03-04T14:45:12.925Z,28.30
2024-03-04T14:47:41.007Z,29.80
2024-03-04T14:50:09.751Z,24.17
2024-03-04T14:52:37.792Z,22.60
2024-03-04T14:55:07.792Z,23.00
2024-03-04T14:57:35.726Z,23.42
2024-03-04T15:00:12.192Z,23.92
2024-03-04T15:02:41.071Z,25.85
2024-03-04T15:05:10.409Z,25.02
2024-03-04T15:07:38.490Z,29.65
2024-03-04T15:10:10.139Z,33.65
2024-03-04T15:12:39.065Z,37.72
2024-03-04T15:15:10.567Z,40.88
2024-03-04T15:17:38.618Z,43.25
2024-03-04T15:20:10.686Z,43.80
2024-03-04T15:22:38.790Z,43.30
2024-03-04T15:25:09.246Z,45.20
2024-03-04T15:27:39.958Z,45.37
2024-03-04T15:30:09.613Z,47.13
2024-03-04T15:32:38.085Z,44.10
2024-03-04T15:35:07.540Z,47.63
2024-03-04T15:37:35.865Z,49.77
2024-03-04T15:40:06.839Z,49.37
2024-03-04T15:42:36.707Z,50.40
2024-03-04T15:45:05.823Z,49.87
2024-03-04T15:47:33.898Z,51.77
2024-03-04T15:50:01.869Z,51.97
2024-03-04T15:52:29.851Z,54.67
2024-03-04T15:54:57.949Z,55.97
2024-03-04T15:57:26.040Z,54.13
2024-03-04T15:59:55.341Z,55.83
2024-03-04T16:02:23.386Z,55.57
2024-03-04T16:04:51.393Z,55.07
2024-03-04T16:07:19.432Z,57.40
2024-03-04T16:09:48.201Z,57.47
2024-03-04T16:12:16.395Z,58.73
2024-03-04T16:14:45.709Z,58.57
2024-03-04T16:17:15.145Z,58.43
2024-03-04T16:19:43.949Z,54.23
2024-03-04T16:22:12.270Z,61.03
2024-03-04T16:24:40.627Z,57.20
2024-03-04T16:27:08.729Z,56.63
2024-03-04T16:29:38.941Z,58.53
2024-03-04T16:32:07.345Z,60.57
2024-03-04T16:34:36.782Z,59.97
2024-03-04T16:37:05.427Z,60.97
2024-03-04T16:39:33.331Z,68.87
2024-03-04T16:42:01.531Z,62.57
2024-03-04T16:44:29.420Z,64.67
2024-03-04T16:46:57.499Z,67.63
2024-03-04T16:49:25.457Z,67.80
2024-03-04T16:51:54.888Z,64.13
2024-03-04T16:54:22.808Z,62.20
2024-03-04T16:56:50.759Z,62.87
2024-03-04T16:59:18.724Z,64.03
2024-03-04T17:01:49.682Z,66.80
2024-03-04T17:04:18.410Z,71.90
2024-03-04T17:06:47.925Z,75.10
2024-03-04T17:09:19.363Z,71.57
2024-03-04T17:11:47.603Z,70.00
2024-03-04T17:14:15.514Z,74.13
2024-03-04T17:16:44.377Z,76.83
2024-03-04T17:19:12.880Z,77.10
2024-03-04T17:21:44.776Z,78.67
2024-03-04T17:24:12.703Z,76.80
2024-03-04T17:26:44.259Z,77.40
2024-03-04T17:29:12.459Z,81.40
2024-03-04T17:31:40.641Z,80.03
2024-03-04T17:34:08.548Z,79.40
2024-03-04T17:36:40.220Z,81.13
2024-03-04T17:39:08.164Z,83.80
2024-03-04T17:41:36.112Z,82.73
2024-03-04T17:44:05.517Z,84.40
2024-03-04T17:46:34.530Z,86.70
2024-03-04T17:49:02.467Z,88.77
2024-03-04T17:51:30.641Z,88.33
2024-03-04T17:53:58.733Z,89.40
2024-03-04T17:56:26.700Z,88.80
2024-03-04T17:58:56.985Z,91.97
2024-03-04T18:01:26.425Z,89.53
2024-03-04T18:03:54.454Z,91.93
2024-03-04T18:06:22.547Z,91.83
2024-03-04T18:08:50.620Z,94.00
2024-03-04T18:11:18.619Z,97.17
2024-03-04T18:13:46.677Z,99.40
2024-03-04T18:16:14.867Z,101.17
2024-03-04T18:18:44.340Z,104.00
2024-03-04T18:21:12.321Z,105.63
2024-03-04T18:23:40.258Z,105.47
2024-03-04T18:26:13.983Z,111.40
2024-03-04T18:28:42.947Z,106.87
2024-03-04T18:31:10.968Z,106.07
2024-03-04T18:33:39.005Z,103.57
2024-03-04T18:36:08.732Z,103.07
2024-03-04T18:38:41.599Z,101.37
2024-03-04T18:41:09.818Z,105.87
2024-03-04T18:43:38.710Z,101.23
2024-03-04T18:46:08.146Z,102.37
2024-03-04T18:48:36.131Z,102.97
2024-03-04T18:51:04.186Z,104.63
2024-03-04T18:53:33.915Z,105.63
2024-03-04T18:56:02.387Z,107.93
2024-03-04T18:58:30.354Z,110.10
2024-03-04T19:00:58.343Z,109.67
2024-03-04T19:03:26.341Z,112.90
2024-03-04T19:05:54.632Z,113.33
2024-03-04T19:08:22.790Z,114.90
2024-03-04T19:11:01.171Z,118.43
2024-03-04T19:13:37.056Z,119.07
2024-03-04T19:16:05.167Z,118.93
2024-03-04T19:18:33.236Z,116.47
2024-03-04T19:21:02.238Z,118.07
2024-03-04T19:23:30.293Z,119.90
2024-03-04T19:25:59.808Z,120.80
2024-03-04T19:28:28.236Z,122.33
2024-03-04T19:30:56.320Z,126.87
2024-03-04T19:33:24.548Z,129.87
2024-03-04T19:35:52.983Z,133.73
2024-03-04T19:38:21.123Z,138.10
2024-03-04T19:40:50.426Z,140.50
2024-03-04T19:43:19.774Z,142.47
2024-03-04T19:45:47.765Z,141.67
2024-03-04T19:48:15.844Z,139.03
2024-03-04T19:50:43.865Z,139.30
2024-03-04T19:53:11.851Z,136.83
2024-03-04T19:55:40.511Z,137.23
2024-03-04T19:58:08.489Z,137.37
2024-03-04T20:00:37.834Z,137.47
2024-03-04T20:03:06.105Z,137.00
2024-03-04T20:05:35.386Z,134.77
2024-03-04T20:08:04.300Z,134.10
2024-03-04T20:10:32.340Z,135.00
2024-03-04T20:13:00.316Z,134.57
2024-03-04T20:15:28.238Z,134.47
2024-03-04T20:17:57.721Z,134.47
2024-03-04T20:20:25.637Z,135.37
2024-03-04T20:22:53.666Z,134.30
2024-03-04T20:25:21.573Z,132.73
2024-03-04T20:27:49.769Z,132.00
2024-03-04T20:30:18.624Z,134.10
2024-03-04T20:32:46.786Z,131.23
2024-03-04T20:35:18.810Z,132.33
2024-03-04T20:37:48.062Z,133.27
2024-03-04T20:40:16.088Z,133.17
2024-03-04T20:42:44.120Z,133.60
2024-03-04T20:45:12.657Z,132.57
2024-03-04T20:47:40.537Z,132.07
2024-03-04T20:50:09.586Z,135.57
2024-03-04T20:52:38.948Z,133.63
2024-03-04T20:55:08.305Z,132.60
2024-03-04T20:57:36.299Z,133.03
2024-03-04T21:00:14.031Z,133.00
2024-03-04T21:02:51.657Z,133.33
2024-03-04T21:05:28.459Z,132.90
2024-03-04T21:08:05.087Z,132.33
2024-03-04T21:10:33.748Z,134.83
2024-03-04T21:13:01.750Z,133.63
2024-03-04T21:15:29.867Z,133.87
2024-03-04T21:18:02.362Z,131.73
2024-03-04T21:20:31.369Z,134.47
2024-03-04T21:23:04.307Z,132.53
2024-03-04T21:25:32.582Z,132.33
2024-03-04T21:28:00.540Z,134.50
2024-03-04T21:30:29.345Z,133.20
2024-03-04T21:32:57.304Z,133.63
2024-03-04T21:35:25.352Z,133.43
2024-03-04T21:37:55.624Z,132.80
2024-03-04T21:40:29.622Z,133.90
2024-03-04T21:43:03.035Z,134.43
2024-03-04T21:45:37.717Z,133.50
2024-03-04T21:48:15.060Z,131.80
2024-03-04T21:50:44.428Z,133.53
2024-03-04T21:53:12.367Z,133.77
2024-03-04T21:55:41.784Z,133.07
2024-03-04T21:58:09.872Z,131.77
2024-03-04T22:00:38.938Z,133.27
2024-03-04T22:03:07.840Z,129.63
2024-03-04T22:05:36.682Z,133.50
2024-03-04T22:08:05.362Z,133.57
2024-03-04T22:10:33.998Z,132.53
2024-03-04T22:13:03.542Z,130.90
2024-03-04T22:15:31.440Z,125.70
2024-03-04T22:17:59.375Z,128.27
2024-03-04T22:20:27.359Z,124.20
2024-03-04T22:22:55.353Z,125.33
2024-03-04T22:25:23.330Z,124.83
2024-03-04T22:27:51.367Z,127.10
2024-03-04T22:30:21.002Z,126.33
2024-03-04T22:32:49.412Z,126.20
2024-03-04T22:35:17.498Z,125.50
2024-03-04T22:37:45.654Z,125.43
2024-03-04T22:40:13.913Z,124.43
2024-03-04T22:42:42.006Z,123.60
2024-03-04T22:45:10.574Z,124.97
2024-03-04T22:47:40.646Z,124.33
2024-03-04T22:50:10.983Z,123.90
2024-03-04T22:52:39.062Z,140.70
2024-03-04T22:55:07.390Z,122.23
2024-03-04T22:57:35.378Z,121.50
2024-03-04T23:00:07.248Z,121.73
2024-03-04T23:02:35.262Z,120.53
2024-03-04T23:05:04.821Z,120.93
2024-03-04T23:07:33.737Z,121.10
2024-03-04T23:10:01.682Z,117.47
2024-03-04T23:12:29.919Z,117.10
2024-03-04T23:14:57.860Z,116.43
2024-03-04T23:17:27.685Z,118.93
2024-03-04T23:19:56.356Z,117.47
2024-03-04T23:22:25.941Z,115.53
2024-03-04T23:24:53.985Z,116.10
2024-03-04T23:27:21.883Z,115.23
2024-03-04T23:29:50.121Z,114.30
2024-03-04T23:32:18.113Z,115.07
2024-03-04T23:34:46.863Z,116.37
2024-03-04T23:37:15.252Z,116.93
2024-03-04T23:39:44.777Z,115.67
2024-03-04T23:42:12.726Z,116.20
2024-03-04T23:44:41.025Z,113.30
2024-03-04T23:47:09.038Z,113.13
2024-03-04T23:49:37.629Z,115.20
2024-03-04T23:52:05.780Z,112.77
2024-03-04T23:54:33.821Z,115.30
2024-03-04T23:57:03.213Z,111.27
2024-03-04T23:59:31.204Z,110.73
